sensor_id;sensor_type;location;lat;lon;timestamp;P1;P2;P0
71858;PMS5003;59713;50.866;4.324;2022-08-19T00:02:17;23;23;
71858;PMS5003;59713;50.866;4.324;2022-08-19T00:05:17;26;25;
71858;PMS5003;59713;50.866;4.324;2022-08-19T00:08:17;25;22;
71858;PMS5003;59713;50.866;4.324;2022-08-19T00:11:17;23;23;
71858;PMS5003;59713;50.866;4.324;2022-08-19T00:14:17;24;23;
71858;PMS5003;59713;50.866;4.324;2022-08-19T00:17:17;27;25;
71858;PMS5003;59713;50.866;4.324;2022-08-19T00:20:18;30;27;
71858;PMS5003;59713;50.866;4.324;2022-08-19T00:23:17;24;24;
71858;PMS5003;59713;50.866;4.324;2022-08-19T00:26:17;30;26;
71858;PMS5003;59713;50.866;4.324;2022-08-19T00:32:17;34;31;
71858;PMS5003;59713;50.866;4.324;2022-08-19T00:35:17;37;32;
71858;PMS5003;59713;50.866;4.324;2022-08-19T00:38:17;38;33;
71858;PMS5003;59713;50.866;4.324;2022-08-19T00:41:17;37;29;
71858;PMS5003;59713;50.866;4.324;2022-08-19T00:44:18;44;35;
71858;PMS5003;59713;50.866;4.324;2022-08-19T00:47:17;47;37;
71858;PMS5003;59713;50.866;4.324;2022-08-19T00:50:18;46;39;
71858;PMS5003;59713;50.866;4.324;2022-08-19T00:53:19;41;34;
71858;PMS5003;59713;50.866;4.324;2022-08-19T00:56:17;52;39;
71858;PMS5003;59713;50.866;4.324;2022-08-19T00:59:17;42;34;
71858;PMS5003;59713;50.866;4.324;2022-08-19T01:02:17;47;36;
71858;PMS5003;59713;50.866;4.324;2022-08-19T01:05:18;49;38;
71858;PMS5003;59713;50.866;4.324;2022-08-19T01:08:17;47;37;
71858;PMS5003;59713;50.866;4.324;2022-08-19T01:11:17;42;33;
71858;PMS5003;59713;50.866;4.324;2022-08-19T01:14:17;39;33;
71858;PMS5003;59713;50.866;4.324;2022-08-19T01:17:17;43;35;
71858;PMS5003;59713;50.866;4.324;2022-08-19T01:20:19;37;30;
71858;PMS5003;59713;50.866;4.324;2022-08-19T01:23:17;45;34;
71858;PMS5003;59713;50.866;4.324;2022-08-19T01:26:18;39;32;
71858;PMS5003;59713;50.866;4.324;2022-08-19T01:29:17;41;33;
71858;PMS5003;59713;50.866;4.324;2022-08-19T01:32:17;32;26;
71858;PMS5003;59713;50.866;4.324;2022-08-19T01:35:19;47;36;
71858;PMS5003;59713;50.866;4.324;2022-08-19T01:38:20;40;33;
71858;PMS5003;59713;50.866;4.324;2022-08-19T01:41:17;38;33;
71858;PMS5003;59713;50.866;4.324;2022-08-19T01:47:17;36;32;
71858;PMS5003;59713;50.866;4.324;2022-08-19T01:50:17;33;31;
71858;PMS5003;59713;50.866;4.324;2022-08-19T01:53:17;32;30;
71858;PMS5003;59713;50.866;4.324;2022-08-19T01:56:18;33;31;
71858;PMS5003;59713;50.866;4.324;2022-08-19T01:59:19;30;28;
71858;PMS5003;59713;50.866;4.324;2022-08-19T02:02:17;29;28;
71858;PMS5003;59713;50.866;4.324;2022-08-19T02:05:17;38;32;
71858;PMS5003;59713;50.866;4.324;2022-08-19T02:08:17;32;30;
71858;PMS5003;59713;50.866;4.324;2022-08-19T02:11:18;38;30;
71858;PMS5003;59713;50.866;4.324;2022-08-19T02:14:17;28;21;
71858;PMS5003;59713;50.866;4.324;2022-08-19T02:17:17;27;23;
71858;PMS5003;59713;50.866;4.324;2022-08-19T02:20:17;23;23;
71858;PMS5003;59713;50.866;4.324;2022-08-19T02:23:17;28;27;
71858;PMS5003;59713;50.866;4.324;2022-08-19T02:26:17;16;16;
71858;PMS5003;59713;50.866;4.324;2022-08-19T02:29:22;21;21;
71858;PMS5003;59713;50.866;4.324;2022-08-19T02:32:17;28;24;
71858;PMS5003;59713;50.866;4.324;2022-08-19T02:35:17;25;24;
71858;PMS5003;59713;50.866;4.324;2022-08-19T02:38:17;24;21;
71858;PMS5003;59713;50.866;4.324;2022-08-19T02:41:19;25;22;
71858;PMS5003;59713;50.866;4.324;2022-08-19T02:44:17;27;25;
71858;PMS5003;59713;50.866;4.324;2022-08-19T02:47:17;31;26;
71858;PMS5003;59713;50.866;4.324;2022-08-19T02:50:17;24;22;
71858;PMS5003;59713;50.866;4.324;2022-08-19T02:53:17;17;17;
71858;PMS5003;59713;50.866;4.324;2022-08-19T02:56:17;26;24;
71858;PMS5003;59713;50.866;4.324;2022-08-19T02:59:17;35;28;
71858;PMS5003;59713;50.866;4.324;2022-08-19T03:02:17;26;23;
71858;PMS5003;59713;50.866;4.324;2022-08-19T03:05:17;27;27;
71858;PMS5003;59713;50.866;4.324;2022-08-19T03:08:28;23;21;
71858;PMS5003;59713;50.866;4.324;2022-08-19T03:11:18;28;22;
71858;PMS5003;59713;50.866;4.324;2022-08-19T03:14:17;30;27;
71858;PMS5003;59713;50.866;4.324;2022-08-19T03:17:17;23;22;
71858;PMS5003;59713;50.866;4.324;2022-08-19T03:20:17;25;23;
71858;PMS5003;59713;50.866;4.324;2022-08-19T03:23:17;30;27;
71858;PMS5003;59713;50.866;4.324;2022-08-19T03:26:17;23;23;
71858;PMS5003;59713;50.866;4.324;2022-08-19T03:29:17;27;25;
71858;PMS5003;59713;50.866;4.324;2022-08-19T03:32:17;22;18;
71858;PMS5003;59713;50.866;4.324;2022-08-19T03:35:17;24;23;
71858;PMS5003;59713;50.866;4.324;2022-08-19T03:38:17;30;28;
71858;PMS5003;59713;50.866;4.324;2022-08-19T03:41:18;26;23;
71858;PMS5003;59713;50.866;4.324;2022-08-19T03:44:18;31;26;
71858;PMS5003;59713;50.866;4.324;2022-08-19T03:47:17;25;24;
71858;PMS5003;59713;50.866;4.324;2022-08-19T03:50:17;24;24;
71858;PMS5003;59713;50.866;4.324;2022-08-19T03:53:17;25;24;
71858;PMS5003;59713;50.866;4.324;2022-08-19T03:56:17;31;23;
71858;PMS5003;59713;50.866;4.324;2022-08-19T03:59:19;32;24;
71858;PMS5003;59713;50.866;4.324;2022-08-19T04:02:17;25;24;
71858;PMS5003;59713;50.866;4.324;2022-08-19T04:05:17;32;24;
71858;PMS5003;59713;50.866;4.324;2022-08-19T04:08:17;22;20;
71858;PMS5003;59713;50.866;4.324;2022-08-19T04:11:18;27;24;
71858;PMS5003;59713;50.866;4.324;2022-08-19T04:14:18;24;21;
71858;PMS5003;59713;50.866;4.324;2022-08-19T04:17:17;29;25;
71858;PMS5003;59713;50.866;4.324;2022-08-19T04:20:17;23;23;
71858;PMS5003;59713;50.866;4.324;2022-08-19T04:23:17;25;23;
71858;PMS5003;59713;50.866;4.324;2022-08-19T04:26:18;23;23;
71858;PMS5003;59713;50.866;4.324;2022-08-19T04:29:19;24;23;
71858;PMS5003;59713;50.866;4.324;2022-08-19T04:35:17;27;26;
71858;PMS5003;59713;50.866;4.324;2022-08-19T04:38:18;25;21;
71858;PMS5003;59713;50.866;4.324;2022-08-19T04:41:17;28;24;
71858;PMS5003;59713;50.866;4.324;2022-08-19T04:44:17;26;24;
71858;PMS5003;59713;50.866;4.324;2022-08-19T04:50:17;27;22;
71858;PMS5003;59713;50.866;4.324;2022-08-19T04:53:17;25;21;
71858;PMS5003;59713;50.866;4.324;2022-08-19T04:56:18;24;22;
71858;PMS5003;59713;50.866;4.324;2022-08-19T04:59:18;23;19;
71858;PMS5003;59713;50.866;4.324;2022-08-19T05:02:17;25;21;
71858;PMS5003;59713;50.866;4.324;2022-08-19T05:05:17;24;22;
71858;PMS5003;59713;50.866;4.324;2022-08-19T05:08:18;18;17;
71858;PMS5003;59713;50.866;4.324;2022-08-19T05:11:18;20;18;
71858;PMS5003;59713;50.866;4.324;2022-08-19T05:14:17;21;21;
71858;PMS5003;59713;50.866;4.324;2022-08-19T05:17:17;15;15;
71858;PMS5003;59713;50.866;4.324;2022-08-19T05:20:17;25;20;
71858;PMS5003;59713;50.866;4.324;2022-08-19T05:23:17;19;18;
71858;PMS5003;59713;50.866;4.324;2022-08-19T05:26:17;20;18;
71858;PMS5003;59713;50.866;4.324;2022-08-19T05:29:18;21;18;
71858;PMS5003;59713;50.866;4.324;2022-08-19T05:32:17;20;17;
71858;PMS5003;59713;50.866;4.324;2022-08-19T05:41:17;22;21;
71858;PMS5003;59713;50.866;4.324;2022-08-19T05:44:18;21;19;
71858;PMS5003;59713;50.866;4.324;2022-08-19T05:47:18;27;20;
71858;PMS5003;59713;50.866;4.324;2022-08-19T05:50:32;21;20;
71858;PMS5003;59713;50.866;4.324;2022-08-19T05:53:18;22;18;
71858;PMS5003;59713;50.866;4.324;2022-08-19T06:02:17;21;18;
71858;PMS5003;59713;50.866;4.324;2022-08-19T06:05:17;22;21;
71858;PMS5003;59713;50.866;4.324;2022-08-19T06:08:18;23;16;
71858;PMS5003;59713;50.866;4.324;2022-08-19T06:11:19;18;18;
71858;PMS5003;59713;50.866;4.324;2022-08-19T06:14:19;16;16;
71858;PMS5003;59713;50.866;4.324;2022-08-19T06:17:17;17;15;
71858;PMS5003;59713;50.866;4.324;2022-08-19T06:20:17;31;17;
71858;PMS5003;59713;50.866;4.324;2022-08-19T06:23:17;22;17;
71858;PMS5003;59713;50.866;4.324;2022-08-19T06:26:18;30;16;
71858;PMS5003;59713;50.866;4.324;2022-08-19T06:29:18;17;13;
71858;PMS5003;59713;50.866;4.324;2022-08-19T06:32:18;16;14;
71858;PMS5003;59713;50.866;4.324;2022-08-19T06:35:18;14;12;
71858;PMS5003;59713;50.866;4.324;2022-08-19T06:38:17;15;11;
71858;PMS5003;59713;50.866;4.324;2022-08-19T06:44:18;14;13;
71858;PMS5003;59713;50.866;4.324;2022-08-19T06:47:18;12;11;
71858;PMS5003;59713;50.866;4.324;2022-08-19T06:53:17;15;13;
71858;PMS5003;59713;50.866;4.324;2022-08-19T06:56:18;13;11;
71858;PMS5003;59713;50.866;4.324;2022-08-19T06:59:20;11;10;
71858;PMS5003;59713;50.866;4.324;2022-08-19T07:02:18;8;8;
71858;PMS5003;59713;50.866;4.324;2022-08-19T07:05:18;11;10;
71858;PMS5003;59713;50.866;4.324;2022-08-19T07:08:17;10;10;
71858;PMS5003;59713;50.866;4.324;2022-08-19T07:11:18;9;9;
71858;PMS5003;59713;50.866;4.324;2022-08-19T07:17:18;36;16;
71858;PMS5003;59713;50.866;4.324;2022-08-19T07:20:18;12;9;
71858;PMS5003;59713;50.866;4.324;2022-08-19T07:23:18;13;12;
71858;PMS5003;59713;50.866;4.324;2022-08-19T07:26:19;9;9;
71858;PMS5003;59713;50.866;4.324;2022-08-19T07:29:18;10;10;
71858;PMS5003;59713;50.866;4.324;2022-08-19T07:32:18;13;10;
71858;PMS5003;59713;50.866;4.324;2022-08-19T07:35:18;10;7;
71858;PMS5003;59713;50.866;4.324;2022-08-19T07:38:17;7;7;
71858;PMS5003;59713;50.866;4.324;2022-08-19T07:41:19;12;9;
71858;PMS5003;59713;50.866;4.324;2022-08-19T07:44:18;9;8;
71858;PMS5003;59713;50.866;4.324;2022-08-19T07:47:18;10;9;
71858;PMS5003;59713;50.866;4.324;2022-08-19T07:50:18;11;11;
71858;PMS5003;59713;50.866;4.324;2022-08-19T07:56:18;7;7;
71858;PMS5003;59713;50.866;4.324;2022-08-19T07:59:19;9;7;
71858;PMS5003;59713;50.866;4.324;2022-08-19T08:05:18;10;9;
71858;PMS5003;59713;50.866;4.324;2022-08-19T08:08:18;9;9;
71858;PMS5003;59713;50.866;4.324;2022-08-19T08:11:18;11;11;
71858;PMS5003;59713;50.866;4.324;2022-08-19T08:14:18;10;7;
71858;PMS5003;59713;50.866;4.324;2022-08-19T08:17:18;7;7;
71858;PMS5003;59713;50.866;4.324;2022-08-19T08:23:18;9;7;
71858;PMS5003;59713;50.866;4.324;2022-08-19T08:26:18;11;9;
71858;PMS5003;59713;50.866;4.324;2022-08-19T08:29:18;8;6;
71858;PMS5003;59713;50.866;4.324;2022-08-19T08:32:18;9;7;
71858;PMS5003;59713;50.866;4.324;2022-08-19T08:35:19;8;7;
71858;PMS5003;59713;50.866;4.324;2022-08-19T08:38:18;9;6;
71858;PMS5003;59713;50.866;4.324;2022-08-19T08:41:20;11;8;
71858;PMS5003;59713;50.866;4.324;2022-08-19T08:44:20;5;5;
71858;PMS5003;59713;50.866;4.324;2022-08-19T08:47:18;7;7;
71858;PMS5003;59713;50.866;4.324;2022-08-19T08:53:18;8;8;
71858;PMS5003;59713;50.866;4.324;2022-08-19T08:59:19;6;5;
71858;PMS5003;59713;50.866;4.324;2022-08-19T09:02:18;7;7;
71858;PMS5003;59713;50.866;4.324;2022-08-19T09:08:19;8;6;
71858;PMS5003;59713;50.866;4.324;2022-08-19T09:11:19;9;6;
71858;PMS5003;59713;50.866;4.324;2022-08-19T09:14:20;12;7;
71858;PMS5003;59713;50.866;4.324;2022-08-19T09:17:18;7;7;
71858;PMS5003;59713;50.866;4.324;2022-08-19T09:20:18;5;5;
71858;PMS5003;59713;50.866;4.324;2022-08-19T09:23:18;8;6;
71858;PMS5003;59713;50.866;4.324;2022-08-19T09:26:24;4;4;
71858;PMS5003;59713;50.866;4.324;2022-08-19T09:29:18;8;7;
71858;PMS5003;59713;50.866;4.324;2022-08-19T09:32:18;7;7;
71858;PMS5003;59713;50.866;4.324;2022-08-19T09:38:18;42;28;
71858;PMS5003;59713;50.866;4.324;2022-08-19T09:41:18;9;8;
71858;PMS5003;59713;50.866;4.324;2022-08-19T09:44:18;6;5;
71858;PMS5003;59713;50.866;4.324;2022-08-19T09:47:18;7;5;
71858;PMS5003;59713;50.866;4.324;2022-08-19T09:53:18;9;5;
71858;PMS5003;59713;50.866;4.324;2022-08-19T09:56:18;7;5;
71858;PMS5003;59713;50.866;4.324;2022-08-19T09:59:18;3;3;
71858;PMS5003;59713;50.866;4.324;2022-08-19T10:02:18;16;10;
71858;PMS5003;59713;50.866;4.324;2022-08-19T10:05:18;6;5;
71858;PMS5003;59713;50.866;4.324;2022-08-19T10:08:20;7;5;
71858;PMS5003;59713;50.866;4.324;2022-08-19T10:11:18;6;5;
71858;PMS5003;59713;50.866;4.324;2022-08-19T10:14:18;8;5;
71858;PMS5003;59713;50.866;4.324;2022-08-19T10:17:18;6;5;
71858;PMS5003;59713;50.866;4.324;2022-08-19T10:20:18;7;7;
71858;PMS5003;59713;50.866;4.324;2022-08-19T10:23:18;6;6;
71858;PMS5003;59713;50.866;4.324;2022-08-19T10:26:19;7;6;
71858;PMS5003;59713;50.866;4.324;2022-08-19T10:32:18;5;5;
71858;PMS5003;59713;50.866;4.324;2022-08-19T10:35:20;6;6;
71858;PMS5003;59713;50.866;4.324;2022-08-19T10:38:19;5;5;
71858;PMS5003;59713;50.866;4.324;2022-08-19T10:41:19;11;8;
71858;PMS5003;59713;50.866;4.324;2022-08-19T10:44:18;29;27;
71858;PMS5003;59713;50.866;4.324;2022-08-19T10:47:18;14;10;
71858;PMS5003;59713;50.866;4.324;2022-08-19T10:50:18;7;5;
71858;PMS5003;59713;50.866;4.324;2022-08-19T10:53:18;4;4;
71858;PMS5003;59713;50.866;4.324;2022-08-19T10:56:18;5;5;
71858;PMS5003;59713;50.866;4.324;2022-08-19T10:59:19;9;6;
71858;PMS5003;59713;50.866;4.324;2022-08-19T11:02:18;6;4;
71858;PMS5003;59713;50.866;4.324;2022-08-19T11:08:18;7;6;
71858;PMS5003;59713;50.866;4.324;2022-08-19T11:11:18;6;5;
71858;PMS5003;59713;50.866;4.324;2022-08-19T11:14:18;4;4;
71858;PMS5003;59713;50.866;4.324;2022-08-19T11:17:18;7;5;
71858;PMS5003;59713;50.866;4.324;2022-08-19T11:20:18;12;8;
71858;PMS5003;59713;50.866;4.324;2022-08-19T11:23:18;5;5;
71858;PMS5003;59713;50.866;4.324;2022-08-19T11:26:20;7;3;
71858;PMS5003;59713;50.866;4.324;2022-08-19T11:29:19;9;9;
71858;PMS5003;59713;50.866;4.324;2022-08-19T11:32:18;6;5;
71858;PMS5003;59713;50.866;4.324;2022-08-19T11:35:18;7;5;
71858;PMS5003;59713;50.866;4.324;2022-08-19T11:38:18;14;9;
71858;PMS5003;59713;50.866;4.324;2022-08-19T11:41:19;13;11;
71858;PMS5003;59713;50.866;4.324;2022-08-19T11:44:18;11;9;
71858;PMS5003;59713;50.866;4.324;2022-08-19T11:47:18;8;7;
71858;PMS5003;59713;50.866;4.324;2022-08-19T11:50:18;11;7;
71858;PMS5003;59713;50.866;4.324;2022-08-19T11:53:18;13;9;
71858;PMS5003;59713;50.866;4.324;2022-08-19T11:56:18;9;8;
71858;PMS5003;59713;50.866;4.324;2022-08-19T11:59:18;2;2;
71858;PMS5003;59713;50.866;4.324;2022-08-19T12:02:18;7;6;
71858;PMS5003;59713;50.866;4.324;2022-08-19T12:05:18;13;10;
71858;PMS5003;59713;50.866;4.324;2022-08-19T12:08:18;9;9;
71858;PMS5003;59713;50.866;4.324;2022-08-19T12:11:18;7;7;
71858;PMS5003;59713;50.866;4.324;2022-08-19T12:14:18;6;5;
71858;PMS5003;59713;50.866;4.324;2022-08-19T12:20:18;8;8;
71858;PMS5003;59713;50.866;4.324;2022-08-19T12:23:18;4;4;
71858;PMS5003;59713;50.866;4.324;2022-08-19T12:26:18;10;10;
71858;PMS5003;59713;50.866;4.324;2022-08-19T12:29:18;34;21;
71858;PMS5003;59713;50.866;4.324;2022-08-19T12:32:18;9;6;
71858;PMS5003;59713;50.866;4.324;2022-08-19T12:35:18;3;3;
71858;PMS5003;59713;50.866;4.324;2022-08-19T12:38:18;10;7;
71858;PMS5003;59713;50.866;4.324;2022-08-19T12:41:19;6;5;
71858;PMS5003;59713;50.866;4.324;2022-08-19T12:44:18;2;2;
71858;PMS5003;59713;50.866;4.324;2022-08-19T12:47:18;6;4;
71858;PMS5003;59713;50.866;4.324;2022-08-19T12:50:18;5;5;
71858;PMS5003;59713;50.866;4.324;2022-08-19T12:53:18;8;6;
71858;PMS5003;59713;50.866;4.324;2022-08-19T12:56:18;3;3;
71858;PMS5003;59713;50.866;4.324;2022-08-19T12:59:18;5;5;
71858;PMS5003;59713;50.866;4.324;2022-08-19T13:02:18;12;4;
71858;PMS5003;59713;50.866;4.324;2022-08-19T13:05:19;2;1;
71858;PMS5003;59713;50.866;4.324;2022-08-19T13:08:18;9;7;
71858;PMS5003;59713;50.866;4.324;2022-08-19T13:11:19;3;3;
71858;PMS5003;59713;50.866;4.324;2022-08-19T13:17:18;6;4;
71858;PMS5003;59713;50.866;4.324;2022-08-19T13:23:18;4;4;
71858;PMS5003;59713;50.866;4.324;2022-08-19T13:26:18;5;4;
71858;PMS5003;59713;50.866;4.324;2022-08-19T13:29:18;2;2;
71858;PMS5003;59713;50.866;4.324;2022-08-19T13:32:18;5;3;
71858;PMS5003;59713;50.866;4.324;2022-08-19T13:41:18;2;2;
71858;PMS5003;59713;50.866;4.324;2022-08-19T13:44:18;3;3;
71858;PMS5003;59713;50.866;4.324;2022-08-19T13:47:18;6;4;
71858;PMS5003;59713;50.866;4.324;2022-08-19T13:50:19;7;5;
71858;PMS5003;59713;50.866;4.324;2022-08-19T13:53:18;3;3;
71858;PMS5003;59713;50.866;4.324;2022-08-19T13:56:19;15;11;
71858;PMS5003;59713;50.866;4.324;2022-08-19T13:59:18;6;3;
71858;PMS5003;59713;50.866;4.324;2022-08-19T14:02:18;4;4;
71858;PMS5003;59713;50.866;4.324;2022-08-19T14:08:19;5;4;
71858;PMS5003;59713;50.866;4.324;2022-08-19T14:11:18;3;3;
71858;PMS5003;59713;50.866;4.324;2022-08-19T14:14:18;0;0;
71858;PMS5003;59713;50.866;4.324;2022-08-19T14:17:18;6;6;
71858;PMS5003;59713;50.866;4.324;2022-08-19T14:20:20;1;1;
71858;PMS5003;59713;50.866;4.324;2022-08-19T14:23:18;5;3;
71858;PMS5003;59713;50.866;4.324;2022-08-19T14:26:19;7;5;
71858;PMS5003;59713;50.866;4.324;2022-08-19T14:29:18;2;2;
71858;PMS5003;59713;50.866;4.324;2022-08-19T14:32:18;5;2;
71858;PMS5003;59713;50.866;4.324;2022-08-19T14:38:18;10;4;
71858;PMS5003;59713;50.866;4.324;2022-08-19T14:41:19;3;3;
71858;PMS5003;59713;50.866;4.324;2022-08-19T14:47:18;2;2;
71858;PMS5003;59713;50.866;4.324;2022-08-19T14:50:19;6;3;
71858;PMS5003;59713;50.866;4.324;2022-08-19T14:53:18;3;3;
71858;PMS5003;59713;50.866;4.324;2022-08-19T15:02:18;39;33;
71858;PMS5003;59713;50.866;4.324;2022-08-19T15:05:18;2;2;
71858;PMS5003;59713;50.866;4.324;2022-08-19T15:14:20;3;3;
71858;PMS5003;59713;50.866;4.324;2022-08-19T15:17:18;4;4;
71858;PMS5003;59713;50.866;4.324;2022-08-19T15:20:19;2;2;
71858;PMS5003;59713;50.866;4.324;2022-08-19T15:26:19;11;10;
71858;PMS5003;59713;50.866;4.324;2022-08-19T15:29:18;2;2;
71858;PMS5003;59713;50.866;4.324;2022-08-19T15:35:19;1;1;
71858;PMS5003;59713;50.866;4.324;2022-08-19T15:38:19;3;2;
71858;PMS5003;59713;50.866;4.324;2022-08-19T15:41:19;1;1;
71858;PMS5003;59713;50.866;4.324;2022-08-19T15:44:19;2;1;
71858;PMS5003;59713;50.866;4.324;2022-08-19T15:47:18;1;1;
71858;PMS5003;59713;50.866;4.324;2022-08-19T15:50:20;2;2;
71858;PMS5003;59713;50.866;4.324;2022-08-19T15:53:18;4;4;
71858;PMS5003;59713;50.866;4.324;2022-08-19T15:56:18;5;4;
71858;PMS5003;59713;50.866;4.324;2022-08-19T15:59:18;2;2;
71858;PMS5003;59713;50.866;4.324;2022-08-19T16:02:19;3;3;
71858;PMS5003;59713;50.866;4.324;2022-08-19T16:11:19;2;2;
71858;PMS5003;59713;50.866;4.324;2022-08-19T16:20:18;4;2;
71858;PMS5003;59713;50.866;4.324;2022-08-19T16:23:19;2;2;
71858;PMS5003;59713;50.866;4.324;2022-08-19T16:26:18;3;3;
71858;PMS5003;59713;50.866;4.324;2022-08-19T16:29:20;1;1;
71858;PMS5003;59713;50.866;4.324;2022-08-19T16:32:19;2;2;
71858;PMS5003;59713;50.866;4.324;2022-08-19T16:35:19;1;1;
71858;PMS5003;59713;50.866;4.324;2022-08-19T16:38:18;4;3;
71858;PMS5003;59713;50.866;4.324;2022-08-19T16:41:18;3;3;
71858;PMS5003;59713;50.866;4.324;2022-08-19T16:44:18;2;2;
71858;PMS5003;59713;50.866;4.324;2022-08-19T16:50:19;5;4;
71858;PMS5003;59713;50.866;4.324;2022-08-19T16:53:19;3;2;
71858;PMS5003;59713;50.866;4.324;2022-08-19T16:56:19;2;2;
71858;PMS5003;59713;50.866;4.324;2022-08-19T16:59:18;4;3;
71858;PMS5003;59713;50.866;4.324;2022-08-19T17:02:19;3;3;
71858;PMS5003;59713;50.866;4.324;2022-08-19T17:05:19;6;6;
71858;PMS5003;59713;50.866;4.324;2022-08-19T17:11:20;3;3;
71858;PMS5003;59713;50.866;4.324;2022-08-19T17:17:19;4;4;
71858;PMS5003;59713;50.866;4.324;2022-08-19T17:20:19;5;5;
71858;PMS5003;59713;50.866;4.324;2022-08-19T17:23:19;3;3;
71858;PMS5003;59713;50.866;4.324;2022-08-19T17:26:18;2;2;
71858;PMS5003;59713;50.866;4.324;2022-08-19T17:29:19;3;3;
71858;PMS5003;59713;50.866;4.324;2022-08-19T17:32:18;5;5;
71858;PMS5003;59713;50.866;4.324;2022-08-19T17:35:19;8;6;
71858;PMS5003;59713;50.866;4.324;2022-08-19T17:38:20;3;3;
71858;PMS5003;59713;50.866;4.324;2022-08-19T17:41:19;4;4;
71858;PMS5003;59713;50.866;4.324;2022-08-19T17:44:19;3;3;
71858;PMS5003;59713;50.866;4.324;2022-08-19T17:47:19;2;2;
71858;PMS5003;59713;50.866;4.324;2022-08-19T17:50:19;4;4;
71858;PMS5003;59713;50.866;4.324;2022-08-19T17:53:19;5;5;
71858;PMS5003;59713;50.866;4.324;2022-08-19T17:59:19;7;6;
71858;PMS5003;59713;50.866;4.324;2022-08-19T18:02:19;5;4;
71858;PMS5003;59713;50.866;4.324;2022-08-19T18:05:19;6;4;
71858;PMS5003;59713;50.866;4.324;2022-08-19T18:11:19;8;6;
71858;PMS5003;59713;50.866;4.324;2022-08-19T18:14:19;4;4;
71858;PMS5003;59713;50.866;4.324;2022-08-19T18:17:19;5;5;
71858;PMS5003;59713;50.866;4.324;2022-08-19T18:20:19;8;8;
71858;PMS5003;59713;50.866;4.324;2022-08-19T18:23:19;7;7;
71858;PMS5003;59713;50.866;4.324;2022-08-19T18:26:19;5;5;
71858;PMS5003;59713;50.866;4.324;2022-08-19T18:29:19;4;4;
71858;PMS5003;59713;50.866;4.324;2022-08-19T18:32:19;6;4;
71858;PMS5003;59713;50.866;4.324;2022-08-19T18:38:19;3;3;
71858;PMS5003;59713;50.866;4.324;2022-08-19T18:41:19;4;3;
71858;PMS5003;59713;50.866;4.324;2022-08-19T18:44:19;7;5;
71858;PMS5003;59713;50.866;4.324;2022-08-19T18:47:19;4;4;
71858;PMS5003;59713;50.866;4.324;2022-08-19T18:50:20;5;5;
71858;PMS5003;59713;50.866;4.324;2022-08-19T18:53:19;2;2;
71858;PMS5003;59713;50.866;4.324;2022-08-19T18:56:19;6;6;
71858;PMS5003;59713;50.866;4.324;2022-08-19T18:59:19;4;4;
71858;PMS5003;59713;50.866;4.324;2022-08-19T19:02:20;5;3;
71858;PMS5003;59713;50.866;4.324;2022-08-19T19:08:19;4;4;
71858;PMS5003;59713;50.866;4.324;2022-08-19T19:11:21;3;3;
71858;PMS5003;59713;50.866;4.324;2022-08-19T19:14:21;5;4;
71858;PMS5003;59713;50.866;4.324;2022-08-19T19:17:20;4;4;
71858;PMS5003;59713;50.866;4.324;2022-08-19T19:20:19;5;5;
71858;PMS5003;59713;50.866;4.324;2022-08-19T19:26:19;3;3;
71858;PMS5003;59713;50.866;4.324;2022-08-19T19:29:19;4;2;
71858;PMS5003;59713;50.866;4.324;2022-08-19T19:32:20;2;2;
71858;PMS5003;59713;50.866;4.324;2022-08-19T19:35:19;4;3;
71858;PMS5003;59713;50.866;4.324;2022-08-19T19:38:19;3;3;
71858;PMS5003;59713;50.866;4.324;2022-08-19T19:47:19;5;4;
71858;PMS5003;59713;50.866;4.324;2022-08-19T19:50:19;4;2;
71858;PMS5003;59713;50.866;4.324;2022-08-19T19:53:19;3;3;
71858;PMS5003;59713;50.866;4.324;2022-08-19T19:56:19;2;2;
71858;PMS5003;59713;50.866;4.324;2022-08-19T19:59:19;4;3;
71858;PMS5003;59713;50.866;4.324;2022-08-19T20:02:19;2;2;
71858;PMS5003;59713;50.866;4.324;2022-08-19T20:05:19;3;1;
71858;PMS5003;59713;50.866;4.324;2022-08-19T20:08:19;5;5;
71858;PMS5003;59713;50.866;4.324;2022-08-19T20:11:28;1;1;
71858;PMS5003;59713;50.866;4.324;2022-08-19T20:17:19;3;2;
71858;PMS5003;59713;50.866;4.324;2022-08-19T20:20:19;2;2;
71858;PMS5003;59713;50.866;4.324;2022-08-19T20:23:20;1;0;
71858;PMS5003;59713;50.866;4.324;2022-08-19T20:26:19;2;2;
71858;PMS5003;59713;50.866;4.324;2022-08-19T20:29:19;3;1;
71858;PMS5003;59713;50.866;4.324;2022-08-19T20:32:19;2;2;
71858;PMS5003;59713;50.866;4.324;2022-08-19T20:35:19;1;1;
71858;PMS5003;59713;50.866;4.324;2022-08-19T20:41:19;2;1;
71858;PMS5003;59713;50.866;4.324;2022-08-19T20:44:19;0;0;
71858;PMS5003;59713;50.866;4.324;2022-08-19T20:47:19;2;2;
71858;PMS5003;59713;50.866;4.324;2022-08-19T20:50:19;4;2;
71858;PMS5003;59713;50.866;4.324;2022-08-19T20:53:19;3;2;
71858;PMS5003;59713;50.866;4.324;2022-08-19T20:56:19;2;2;
71858;PMS5003;59713;50.866;4.324;2022-08-19T20:59:19;3;1;
71858;PMS5003;59713;50.866;4.324;2022-08-19T21:05:19;2;2;
71858;PMS5003;59713;50.866;4.324;2022-08-19T21:08:19;6;3;
71858;PMS5003;59713;50.866;4.324;2022-08-19T21:11:19;2;2;
71858;PMS5003;59713;50.866;4.324;2022-08-19T21:20:19;3;3;
71858;PMS5003;59713;50.866;4.324;2022-08-19T21:23:20;4;2;
71858;PMS5003;59713;50.866;4.324;2022-08-19T21:29:19;1;1;
71858;PMS5003;59713;50.866;4.324;2022-08-19T21:32:19;3;3;
71858;PMS5003;59713;50.866;4.324;2022-08-19T21:35:19;2;2;
71858;PMS5003;59713;50.866;4.324;2022-08-19T21:38:19;3;3;
71858;PMS5003;59713;50.866;4.324;2022-08-19T21:41:19;1;1;
71858;PMS5003;59713;50.866;4.324;2022-08-19T21:44:19;2;2;
71858;PMS5003;59713;50.866;4.324;2022-08-19T21:50:19;4;3;
71858;PMS5003;59713;50.866;4.324;2022-08-19T21:56:19;2;1;
71858;PMS5003;59713;50.866;4.324;2022-08-19T21:59:19;4;2;
71858;PMS5003;59713;50.866;4.324;2022-08-19T22:02:19;2;2;
71858;PMS5003;59713;50.866;4.324;2022-08-19T22:05:19;1;1;
71858;PMS5003;59713;50.866;4.324;2022-08-19T22:08:19;3;3;
71858;PMS5003;59713;50.866;4.324;2022-08-19T22:17:19;4;2;
71858;PMS5003;59713;50.866;4.324;2022-08-19T22:20:20;3;3;
71858;PMS5003;59713;50.866;4.324;2022-08-19T22:23:19;4;4;
71858;PMS5003;59713;50.866;4.324;2022-08-19T22:26:19;2;2;
71858;PMS5003;59713;50.866;4.324;2022-08-19T22:32:19;4;4;
71858;PMS5003;59713;50.866;4.324;2022-08-19T22:35:21;5;5;
71858;PMS5003;59713;50.866;4.324;2022-08-19T22:38:19;4;3;
71858;PMS5003;59713;50.866;4.324;2022-08-19T22:41:19;11;6;
71858;PMS5003;59713;50.866;4.324;2022-08-19T22:44:19;3;3;
71858;PMS5003;59713;50.866;4.324;2022-08-19T22:50:19;5;5;
71858;PMS5003;59713;50.866;4.324;2022-08-19T22:53:19;3;3;
71858;PMS5003;59713;50.866;4.324;2022-08-19T22:56:19;2;2;
71858;PMS5003;59713;50.866;4.324;2022-08-19T22:59:19;5;5;
71858;PMS5003;59713;50.866;4.324;2022-08-19T23:02:19;8;6;
71858;PMS5003;59713;50.866;4.324;2022-08-19T23:05:19;5;5;
71858;PMS5003;59713;50.866;4.324;2022-08-19T23:08:19;8;7;
71858;PMS5003;59713;50.866;4.324;2022-08-19T23:11:19;6;5;
71858;PMS5003;59713;50.866;4.324;2022-08-19T23:14:19;4;4;
71858;PMS5003;59713;50.866;4.324;2022-08-19T23:17:19;5;5;
71858;PMS5003;59713;50.866;4.324;2022-08-19T23:20:19;6;6;
71858;PMS5003;59713;50.866;4.324;2022-08-19T23:23:20;4;4;